sensor_id;sensor_type;location;lat;lon;timestamp;pressure;altitude;pressure_sealevel;temperature
18161;BMP280;9205;52.032;4.314;2023-02-28T00:00:35;103192.34;;;5.27
18161;BMP280;9205;52.032;4.314;2023-02-28T00:03:10;103193.19;;;5.28
18161;BMP280;9205;52.032;4.314;2023-02-28T00:05:40;103184.06;;;5.31
18161;BMP280;9205;52.032;4.314;2023-02-28T00:08:11;103190.19;;;5.38
18161;BMP280;9205;52.032;4.314;2023-02-28T00:10:39;103180.78;;;5.34
18161;BMP280;9205;52.032;4.314;2023-02-28T00:13:07;103185.38;;;5.43
18161;BMP280;9205;52.032;4.314;2023-02-28T00:15:38;103183.59;;;5.41
18161;BMP280;9205;52.032;4.314;2023-02-28T00:18:08;103180.38;;;5.45
18161;BMP280;9205;52.032;4.314;2023-02-28T00:20:38;103187.19;;;5.47
18161;BMP280;9205;52.032;4.314;2023-02-28T00:23:07;103197.56;;;5.55
18161;BMP280;9205;52.032;4.314;2023-02-28T00:25:39;103196.00;;;5.58
18161;BMP280;9205;52.032;4.314;2023-02-28T00:28:09;103194.19;;;5.54
18161;BMP280;9205;52.032;4.314;2023-02-28T00:30:37;103196.84;;;5.59
18161;BMP280;9205;52.032;4.314;2023-02-28T00:33:06;103185.16;;;5.61
18161;BMP280;9205;52.032;4.314;2023-02-28T00:35:34;103182.03;;;5.68
18161;BMP280;9205;52.032;4.314;2023-02-28T00:38:02;103203.78;;;5.64
18161;BMP280;9205;52.032;4.314;2023-02-28T00:40:29;103183.75;;;5.69
18161;BMP280;9205;52.032;4.314;2023-02-28T00:42:58;103189.75;;;5.72
18161;BMP280;9205;52.032;4.314;2023-02-28T00:45:27;103184.72;;;5.72
18161;BMP280;9205;52.032;4.314;2023-02-28T00:47:58;103198.59;;;5.83
18161;BMP280;9205;52.032;4.314;2023-02-28T00:50:26;103194.69;;;5.91
18161;BMP280;9205;52.032;4.314;2023-02-28T00:52:57;103187.97;;;5.92
18161;BMP280;9205;52.032;4.314;2023-02-28T00:55:24;103186.50;;;5.98
18161;BMP280;9205;52.032;4.314;2023-02-28T00:57:52;103179.72;;;5.97
18161;BMP280;9205;52.032;4.314;2023-02-28T01:00:28;103178.94;;;5.98
18161;BMP280;9205;52.032;4.314;2023-02-28T01:02:56;103190.75;;;5.99
18161;BMP280;9205;52.032;4.314;2023-02-28T01:05:25;103190.03;;;6.03
18161;BMP280;9205;52.032;4.314;2023-02-28T01:07:56;103184.09;;;6.01
18161;BMP280;9205;52.032;4.314;2023-02-28T01:10:25;103191.56;;;5.98
18161;BMP280;9205;52.032;4.314;2023-02-28T01:13:17;103194.19;;;6.01
18161;BMP280;9205;52.032;4.314;2023-02-28T01:15:51;103199.63;;;6.13
18161;BMP280;9205;52.032;4.314;2023-02-28T01:18:20;103194.69;;;6.16
18161;BMP280;9205;52.032;4.314;2023-02-28T01:20:50;103198.91;;;6.17
18161;BMP280;9205;52.032;4.314;2023-02-28T01:23:19;103194.69;;;6.16
18161;BMP280;9205;52.032;4.314;2023-02-28T01:25:48;103191.56;;;6.23
18161;BMP280;9205;52.032;4.314;2023-02-28T01:28:16;103196.63;;;6.23
18161;BMP280;9205;52.032;4.314;2023-02-28T01:30:48;103189.88;;;6.23
18161;BMP280;9205;52.032;4.314;2023-02-28T01:33:17;103192.44;;;6.25
18161;BMP280;9205;52.032;4.314;2023-02-28T01:35:44;103194.13;;;6.24
18161;BMP280;9205;52.032;4.314;2023-02-28T01:38:14;103193.28;;;6.24
18161;BMP280;9205;52.032;4.314;2023-02-28T01:40:42;103194.16;;;6.26
18161;BMP280;9205;52.032;4.314;2023-02-28T01:43:21;103183.25;;;6.27
18161;BMP280;9205;52.032;4.314;2023-02-28T01:45:53;103185.78;;;6.27
18161;BMP280;9205;52.032;4.314;2023-02-28T01:48:25;103183.38;;;6.30
18161;BMP280;9205;52.032;4.314;2023-02-28T01:50:58;103186.91;;;6.35
18161;BMP280;9205;52.032;4.314;2023-02-28T01:53:36;103181.03;;;6.36
18161;BMP280;9205;52.032;4.314;2023-02-28T01:56:07;103182.75;;;6.37
18161;BMP280;9205;52.032;4.314;2023-02-28T01:58:39;103182.72;;;6.35
18161;BMP280;9205;52.032;4.314;2023-02-28T02:01:10;103172.69;;;6.38
18161;BMP280;9205;52.032;4.314;2023-02-28T02:03:48;103161.75;;;6.38
18161;BMP280;9205;52.032;4.314;2023-02-28T02:06:22;103164.44;;;6.42
18161;BMP280;9205;52.032;4.314;2023-02-28T02:08:52;103161.94;;;6.44
18161;BMP280;9205;52.032;4.314;2023-02-28T02:11:25;103168.69;;;6.43
18161;BMP280;9205;52.032;4.314;2023-02-28T02:14:41;103168.41;;;6.36
18161;BMP280;9205;52.032;4.314;2023-02-28T02:17:26;103158.81;;;6.26
18161;BMP280;9205;52.032;4.314;2023-02-28T02:20:32;103168.84;;;6.23
18161;BMP280;9205;52.032;4.314;2023-02-28T02:26:58;103163.69;;;6.20
18161;BMP280;9205;52.032;4.314;2023-02-28T02:30:29;103158.63;;;6.20
18161;BMP280;9205;52.032;4.314;2023-02-28T02:35:59;103161.16;;;6.20
18161;BMP280;9205;52.032;4.314;2023-02-28T02:38:38;103146.66;;;6.15
18161;BMP280;9205;52.032;4.314;2023-02-28T02:41:18;103149.31;;;6.18
18161;BMP280;9205;52.032;4.314;2023-02-28T02:43:54;103147.53;;;6.15
18161;BMP280;9205;52.032;4.314;2023-02-28T02:46:29;103150.91;;;6.16
18161;BMP280;9205;52.032;4.314;2023-02-28T02:49:02;103144.44;;;6.23
18161;BMP280;9205;52.032;4.314;2023-02-28T02:51:41;103152.16;;;6.28
18161;BMP280;9205;52.032;4.314;2023-02-28T02:54:16;103159.84;;;6.31
18161;BMP280;9205;52.032;4.314;2023-02-28T02:56:50;103148.09;;;6.33
18161;BMP280;9205;52.032;4.314;2023-02-28T02:59:22;103146.44;;;6.33
18161;BMP280;9205;52.032;4.314;2023-02-28T03:01:55;103137.06;;;6.29
18161;BMP280;9205;52.032;4.314;2023-02-28T03:07:22;103141.44;;;6.35
18161;BMP280;9205;52.032;4.314;2023-02-28T03:09:55;103138.69;;;6.27
18161;BMP280;9205;52.032;4.314;2023-02-28T03:12:28;103144.72;;;6.32
18161;BMP280;9205;52.032;4.314;2023-02-28T03:15:08;103141.22;;;6.27
18161;BMP280;9205;52.032;4.314;2023-02-28T03:18:05;103137.81;;;6.27
18161;BMP280;9205;52.032;4.314;2023-02-28T03:20:49;103144.78;;;6.34
18161;BMP280;9205;52.032;4.314;2023-02-28T03:23:28;103152.31;;;6.32
18161;BMP280;9205;52.032;4.314;2023-02-28T03:26:07;103151.34;;;6.29
18161;BMP280;9205;52.032;4.314;2023-02-28T03:28:50;103154.09;;;6.36
18161;BMP280;9205;52.032;4.314;2023-02-28T03:31:32;103160.31;;;6.46
18161;BMP280;9205;52.032;4.314;2023-02-28T03:34:08;103156.75;;;6.39
18161;BMP280;9205;52.032;4.314;2023-02-28T03:36:41;103155.06;;;6.40
18161;BMP280;9205;52.032;4.314;2023-02-28T03:39:21;103156.78;;;6.41
18161;BMP280;9205;52.032;4.314;2023-02-28T03:41:57;103149.94;;;6.37
18161;BMP280;9205;52.032;4.314;2023-02-28T03:44:42;103146.78;;;6.44
18161;BMP280;9205;52.032;4.314;2023-02-28T03:47:19;103146.00;;;6.46
18161;BMP280;9205;52.032;4.314;2023-02-28T03:49:54;103147.06;;;6.53
18161;BMP280;9205;52.032;4.314;2023-02-28T03:52:27;103144.38;;;6.47
18161;BMP280;9205;52.032;4.314;2023-02-28T03:55:05;103153.84;;;6.54
18161;BMP280;9205;52.032;4.314;2023-02-28T03:57:44;103143.59;;;6.49
18161;BMP280;9205;52.032;4.314;2023-02-28T04:00:23;103143.63;;;6.51
18161;BMP280;9205;52.032;4.314;2023-02-28T04:02:54;103141.16;;;6.52
18161;BMP280;9205;52.032;4.314;2023-02-28T04:05:23;103142.16;;;6.57
18161;BMP280;9205;52.032;4.314;2023-02-28T04:07:51;103135.44;;;6.58
18161;BMP280;9205;52.032;4.314;2023-02-28T04:10:21;103136.34;;;6.60
18161;BMP280;9205;52.032;4.314;2023-02-28T04:12:50;103139.81;;;6.63
18161;BMP280;9205;52.032;4.314;2023-02-28T04:15:17;103139.16;;;6.69
18161;BMP280;9205;52.032;4.314;2023-02-28T04:17:51;103129.75;;;6.65
18161;BMP280;9205;52.032;4.314;2023-02-28T04:20:19;103149.88;;;6.62
18161;BMP280;9205;52.032;4.314;2023-02-28T04:22:47;103143.25;;;6.65
18161;BMP280;9205;52.032;4.314;2023-02-28T04:25:15;103134.88;;;6.66
18161;BMP280;9205;52.032;4.314;2023-02-28T04:27:44;103142.63;;;6.72
18161;BMP280;9205;52.032;4.314;2023-02-28T04:30:14;103146.72;;;6.69
18161;BMP280;9205;52.032;4.314;2023-02-28T04:32:42;103156.03;;;6.70
18161;BMP280;9205;52.032;4.314;2023-02-28T04:35:12;103145.22;;;6.75
18161;BMP280;9205;52.032;4.314;2023-02-28T04:37:40;103152.94;;;6.80
18161;BMP280;9205;52.032;4.314;2023-02-28T04:40:10;103155.47;;;6.80
18161;BMP280;9205;52.032;4.314;2023-02-28T04:42:40;103146.16;;;6.79
18161;BMP280;9205;52.032;4.314;2023-02-28T04:45:10;103154.59;;;6.78
18161;BMP280;9205;52.032;4.314;2023-02-28T04:47:38;103170.63;;;6.80
18161;BMP280;9205;52.032;4.314;2023-02-28T04:50:07;103161.00;;;6.68
18161;BMP280;9205;52.032;4.314;2023-02-28T04:52:35;103161.50;;;6.57
18161;BMP280;9205;52.032;4.314;2023-02-28T04:55:04;103164.25;;;6.63
18161;BMP280;9205;52.032;4.314;2023-02-28T04:57:32;103164.44;;;6.70
18161;BMP280;9205;52.032;4.314;2023-02-28T04:59:59;103165.09;;;6.63
18161;BMP280;9205;52.032;4.314;2023-02-28T05:02:34;103166.03;;;6.67
18161;BMP280;9205;52.032;4.314;2023-02-28T05:05:02;103167.63;;;6.65
18161;BMP280;9205;52.032;4.314;2023-02-28T05:07:30;103155.00;;;6.65
18161;BMP280;9205;52.032;4.314;2023-02-28T05:09:58;103169.38;;;6.66
18161;BMP280;9205;52.032;4.314;2023-02-28T05:12:25;103164.25;;;6.63
18161;BMP280;9205;52.032;4.314;2023-02-28T05:14:53;103163.19;;;6.56
18161;BMP280;9205;52.032;4.314;2023-02-28T05:17:20;103169.00;;;6.54
18161;BMP280;9205;52.032;4.314;2023-02-28T05:19:50;103164.03;;;6.57
18161;BMP280;9205;52.032;4.314;2023-02-28T05:22:20;103166.41;;;6.52
18161;BMP280;9205;52.032;4.314;2023-02-28T05:24:48;103158.97;;;6.57
18161;BMP280;9205;52.032;4.314;2023-02-28T05:27:24;103152.28;;;6.57
18161;BMP280;9205;52.032;4.314;2023-02-28T05:29:54;103153.16;;;6.59
18161;BMP280;9205;52.032;4.314;2023-02-28T05:32:22;103157.31;;;6.57
18161;BMP280;9205;52.032;4.314;2023-02-28T05:34:51;103159.75;;;6.54
18161;BMP280;9205;52.032;4.314;2023-02-28T05:37:19;103150.88;;;6.40
18161;BMP280;9205;52.032;4.314;2023-02-28T05:39:47;103160.47;;;6.50
18161;BMP280;9205;52.032;4.314;2023-02-28T05:42:17;103161.22;;;6.48
18161;BMP280;9205;52.032;4.314;2023-02-28T05:44:45;103162.13;;;6.50
18161;BMP280;9205;52.032;4.314;2023-02-28T05:47:13;103159.53;;;6.47
18161;BMP280;9205;52.032;4.314;2023-02-28T05:49:41;103165.13;;;6.38
18161;BMP280;9205;52.032;4.314;2023-02-28T05:52:11;103161.91;;;6.42
18161;BMP280;9205;52.032;4.314;2023-02-28T05:54:38;103159.38;;;6.42
18161;BMP280;9205;52.032;4.314;2023-02-28T05:57:07;103168.44;;;6.37
18161;BMP280;9205;52.032;4.314;2023-02-28T05:59:34;103152.88;;;6.24
18161;BMP280;9205;52.032;4.314;2023-02-28T06:02:06;103159.69;;;6.26
18161;BMP280;9205;52.032;4.314;2023-02-28T06:04:44;103148.09;;;6.33
18161;BMP280;9205;52.032;4.314;2023-02-28T06:07:14;103149.97;;;6.38
18161;BMP280;9205;52.032;4.314;2023-02-28T06:09:43;103160.94;;;6.39
18161;BMP280;9205;52.032;4.314;2023-02-28T06:12:10;103160.72;;;6.33
18161;BMP280;9205;52.032;4.314;2023-02-28T06:14:40;103162.44;;;6.34
18161;BMP280;9205;52.032;4.314;2023-02-28T06:17:09;103153.88;;;6.29
18161;BMP280;9205;52.032;4.314;2023-02-28T06:19:37;103164.78;;;6.28
18161;BMP280;9205;52.032;4.314;2023-02-28T06:22:07;103177.66;;;6.35
18161;BMP280;9205;52.032;4.314;2023-02-28T06:24:36;103164.59;;;6.22
18161;BMP280;9205;52.032;4.314;2023-02-28T06:27:04;103156.06;;;6.19
18161;BMP280;9205;52.032;4.314;2023-02-28T06:29:36;103156.06;;;6.19
18161;BMP280;9205;52.032;4.314;2023-02-28T06:32:06;103150.69;;;6.08
18161;BMP280;9205;52.032;4.314;2023-02-28T06:34:36;103171.38;;;5.98
18161;BMP280;9205;52.032;4.314;2023-02-28T06:37:03;103171.59;;;6.06
18161;BMP280;9205;52.032;4.314;2023-02-28T06:39:31;103176.66;;;6.06
18161;BMP280;9205;52.032;4.314;2023-02-28T06:42:03;103164.09;;;6.07
18161;BMP280;9205;52.032;4.314;2023-02-28T06:44:31;103174.28;;;6.10
18161;BMP280;9205;52.032;4.314;2023-02-28T06:47:02;103175.25;;;6.14
18161;BMP280;9205;52.032;4.314;2023-02-28T06:49:30;103162.47;;;6.09
18161;BMP280;9205;52.032;4.314;2023-02-28T06:52:00;103175.03;;;6.08
18161;BMP280;9205;52.032;4.314;2023-02-28T06:54:28;103175.91;;;6.08
18161;BMP280;9205;52.032;4.314;2023-02-28T06:57:02;103176.66;;;6.06
18161;BMP280;9205;52.032;4.314;2023-02-28T06:59:29;103175.75;;;6.04
18161;BMP280;9205;52.032;4.314;2023-02-28T07:01:58;103162.91;;;5.98
18161;BMP280;9205;52.032;4.314;2023-02-28T07:04:26;103173.78;;;5.95
18161;BMP280;9205;52.032;4.314;2023-02-28T07:06:54;103180.53;;;5.96
18161;BMP280;9205;52.032;4.314;2023-02-28T07:09:23;103184.66;;;5.94
18161;BMP280;9205;52.032;4.314;2023-02-28T07:11:50;103179.59;;;5.93
18161;BMP280;9205;52.032;4.314;2023-02-28T07:14:19;103184.38;;;5.85
18161;BMP280;9205;52.032;4.314;2023-02-28T07:16:48;103188.59;;;5.86
18161;BMP280;9205;52.032;4.314;2023-02-28T07:19:16;103188.41;;;5.80
18161;BMP280;9205;52.032;4.314;2023-02-28T07:21:43;103186.88;;;5.62
18161;BMP280;9205;52.032;4.314;2023-02-28T07:24:11;103187.88;;;5.67
18161;BMP280;9205;52.032;4.314;2023-02-28T07:26:42;103201.25;;;5.64
18161;BMP280;9205;52.032;4.314;2023-02-28T07:29:16;103200.63;;;5.46
18161;BMP280;9205;52.032;4.314;2023-02-28T07:31:45;103205.06;;;5.53
18161;BMP280;9205;52.032;4.314;2023-02-28T07:34:13;103206.50;;;5.47
18161;BMP280;9205;52.032;4.314;2023-02-28T07:36:41;103212.09;;;5.39
18161;BMP280;9205;52.032;4.314;2023-02-28T07:39:08;103212.72;;;5.33
18161;BMP280;9205;52.032;4.314;2023-02-28T07:41:36;103217.47;;;5.26
18161;BMP280;9205;52.032;4.314;2023-02-28T07:44:10;103226.53;;;5.21
18161;BMP280;9205;52.032;4.314;2023-02-28T07:46:38;103222.91;;;5.14
18161;BMP280;9205;52.032;4.314;2023-02-28T07:49:07;103216.22;;;5.15
18161;BMP280;9205;52.032;4.314;2023-02-28T07:51:36;103225.97;;;5.06
18161;BMP280;9205;52.032;4.314;2023-02-28T07:54:05;103233.34;;;5.01
18161;BMP280;9205;52.032;4.314;2023-02-28T07:56:32;103231.38;;;4.94
18161;BMP280;9205;52.032;4.314;2023-02-28T07:59:00;103222.06;;;4.92
18161;BMP280;9205;52.032;4.314;2023-02-28T08:01:28;103220.22;;;4.88
18161;BMP280;9205;52.032;4.314;2023-02-28T08:03:56;103230.28;;;4.88
18161;BMP280;9205;52.032;4.314;2023-02-28T08:06:25;103238.78;;;4.90
18161;BMP280;9205;52.032;4.314;2023-02-28T08:08:59;103232.94;;;4.91
18161;BMP280;9205;52.032;4.314;2023-02-28T08:11:27;103228.34;;;4.81
18161;BMP280;9205;52.032;4.314;2023-02-28T08:13:55;103234.13;;;4.58
18161;BMP280;9205;52.032;4.314;2023-02-28T08:16:27;103235.97;;;4.62
18161;BMP280;9205;52.032;4.314;2023-02-28T08:18:54;103232.63;;;4.63
18161;BMP280;9205;52.032;4.314;2023-02-28T08:21:23;103225.44;;;4.72
18161;BMP280;9205;52.032;4.314;2023-02-28T08:23:51;103235.84;;;4.59
18161;BMP280;9205;52.032;4.314;2023-02-28T08:26:19;103236.63;;;4.58
18161;BMP280;9205;52.032;4.314;2023-02-28T08:28:47;103232.91;;;4.49
18161;BMP280;9205;52.032;4.314;2023-02-28T08:31:17;103232.38;;;4.37
18161;BMP280;9205;52.032;4.314;2023-02-28T08:33:45;103239.88;;;4.35
18161;BMP280;9205;52.032;4.314;2023-02-28T08:36:14;103234.31;;;4.42
18161;BMP280;9205;52.032;4.314;2023-02-28T08:38:44;103229.81;;;4.35
18161;BMP280;9205;52.032;4.314;2023-02-28T08:41:15;103238.31;;;4.37
18161;BMP280;9205;52.032;4.314;2023-02-28T08:43:46;103232.34;;;4.35
18161;BMP280;9205;52.032;4.314;2023-02-28T08:46:23;103237.63;;;4.41
18161;BMP280;9205;52.032;4.314;2023-02-28T08:48:52;103231.91;;;4.45
18161;BMP280;9205;52.032;4.314;2023-02-28T08:51:21;103242.91;;;4.47
18161;BMP280;9205;52.032;4.314;2023-02-28T08:53:55;103235.97;;;4.42
18161;BMP280;9205;52.032;4.314;2023-02-28T08:56:24;103237.56;;;4.40
18161;BMP280;9205;52.032;4.314;2023-02-28T08:58:54;103236.03;;;4.43
18161;BMP280;9205;52.032;4.314;2023-02-28T09:01:25;103232.53;;;4.40
18161;BMP280;9205;52.032;4.314;2023-02-28T09:03:56;103223.66;;;4.29
18161;BMP280;9205;52.032;4.314;2023-02-28T09:06:28;103230.63;;;4.34
18161;BMP280;9205;52.032;4.314;2023-02-28T09:09:03;103228.47;;;4.43
18161;BMP280;9205;52.032;4.314;2023-02-28T09:11:32;103231.78;;;4.42
18161;BMP280;9205;52.032;4.314;2023-02-28T09:14:00;103246.47;;;4.52
18161;BMP280;9205;52.032;4.314;2023-02-28T09:16:31;103230.94;;;4.62
18161;BMP280;9205;52.032;4.314;2023-02-28T09:18:58;103206.00;;;4.68
18161;BMP280;9205;52.032;4.314;2023-02-28T09:21:26;103222.09;;;4.71
18161;BMP280;9205;52.032;4.314;2023-02-28T09:23:58;103224.69;;;4.74
18161;BMP280;9205;52.032;4.314;2023-02-28T09:26:27;103230.06;;;4.82
18161;BMP280;9205;52.032;4.314;2023-02-28T09:28:55;103229.31;;;4.84
18161;BMP280;9205;52.032;4.314;2023-02-28T09:31:27;103214.81;;;4.79
18161;BMP280;9205;52.032;4.314;2023-02-28T09:33:57;103215.88;;;4.84
18161;BMP280;9205;52.032;4.314;2023-02-28T09:36:29;103223.47;;;4.85
18161;BMP280;9205;52.032;4.314;2023-02-28T09:38:58;103221.75;;;4.84
18161;BMP280;9205;52.032;4.314;2023-02-28T09:41:32;103214.41;;;4.90
18161;BMP280;9205;52.032;4.314;2023-02-28T09:44:16;103227.47;;;5.01
18161;BMP280;9205;52.032;4.314;2023-02-28T09:46:50;103224.28;;;5.06
18161;BMP280;9205;52.032;4.314;2023-02-28T09:49:28;103213.63;;;5.13
18161;BMP280;9205;52.032;4.314;2023-02-28T09:52:02;103212.44;;;5.26
18161;BMP280;9205;52.032;4.314;2023-02-28T09:54:36;103227.56;;;5.26
18161;BMP280;9205;52.032;4.314;2023-02-28T09:57:08;103215.88;;;5.28
18161;BMP280;9205;52.032;4.314;2023-02-28T09:59:59;103225.28;;;5.32
18161;BMP280;9205;52.032;4.314;2023-02-28T10:03:25;103216.78;;;5.30
18161;BMP280;9205;52.032;4.314;2023-02-28T10:06:01;103223.66;;;5.34
18161;BMP280;9205;52.032;4.314;2023-02-28T10:08:37;103231.91;;;5.30
18161;BMP280;9205;52.032;4.314;2023-02-28T10:11:16;103224.41;;;5.31
18161;BMP280;9205;52.032;4.314;2023-02-28T10:13:53;103225.50;;;5.38
18161;BMP280;9205;52.032;4.314;2023-02-28T10:16:31;103229.00;;;5.41
18161;BMP280;9205;52.032;4.314;2023-02-28T10:19:14;103223.25;;;5.45
18161;BMP280;9205;52.032;4.314;2023-02-28T10:21:50;103225.75;;;5.45
18161;BMP280;9205;52.032;4.314;2023-02-28T10:24:28;103221.50;;;5.44
18161;BMP280;9205;52.032;4.314;2023-02-28T10:27:09;103211.38;;;5.42
18161;BMP280;9205;52.032;4.314;2023-02-28T10:29:47;103216.38;;;5.41
18161;BMP280;9205;52.032;4.314;2023-02-28T10:32:20;103221.94;;;5.54
18161;BMP280;9205;52.032;4.314;2023-02-28T10:34:52;103219.41;;;5.54
18161;BMP280;9205;52.032;4.314;2023-02-28T10:37:21;103223.06;;;5.62
18161;BMP280;9205;52.032;4.314;2023-02-28T10:39:49;103236.94;;;5.75
18161;BMP280;9205;52.032;4.314;2023-02-28T10:42:25;103225.00;;;5.69
18161;BMP280;9205;52.032;4.314;2023-02-28T10:45:31;103225.31;;;5.78
18161;BMP280;9205;52.032;4.314;2023-02-28T10:48:57;103218.00;;;5.62
18161;BMP280;9205;52.032;4.314;2023-02-28T10:51:36;103224.25;;;5.72
18161;BMP280;9205;52.032;4.314;2023-02-28T10:54:05;103229.00;;;5.64
18161;BMP280;9205;52.032;4.314;2023-02-28T10:56:33;103225.84;;;5.46
18161;BMP280;9205;52.032;4.314;2023-02-28T10:59:23;103220.97;;;5.51
18161;BMP280;9205;52.032;4.314;2023-02-28T11:01:53;103216.94;;;5.56
18161;BMP280;9205;52.032;4.314;2023-02-28T11:04:36;103213.25;;;5.71
18161;BMP280;9205;52.032;4.314;2023-02-28T11:07:19;103212.53;;;5.74
18161;BMP280;9205;52.032;4.314;2023-02-28T11:09:51;103210.91;;;5.76
18161;BMP280;9205;52.032;4.314;2023-02-28T11:12:26;103202.78;;;5.83
18161;BMP280;9205;52.032;4.314;2023-02-28T11:15:00;103206.00;;;5.79
18161;BMP280;9205;52.032;4.314;2023-02-28T11:17:31;103211.25;;;5.85
18161;BMP280;9205;52.032;4.314;2023-02-28T11:20:05;103193.31;;;6.01
18161;BMP280;9205;52.032;4.314;2023-02-28T11:22:37;103200.94;;;6.02
18161;BMP280;9205;52.032;4.314;2023-02-28T11:25:13;103200.13;;;6.03
18161;BMP280;9205;52.032;4.314;2023-02-28T11:27:47;103198.97;;;6.19
18161;BMP280;9205;52.032;4.314;2023-02-28T11:30:33;103196.31;;;6.14
18161;BMP280;9205;52.032;4.314;2023-02-28T11:33:20;103197.25;;;6.18
18161;BMP280;9205;52.032;4.314;2023-02-28T11:35:51;103183.25;;;6.27
18161;BMP280;9205;52.032;4.314;2023-02-28T11:38:19;103196.78;;;6.27
18161;BMP280;9205;52.032;4.314;2023-02-28T11:41:10;103196.44;;;6.43
18161;BMP280;9205;52.032;4.314;2023-02-28T11:43:57;103198.41;;;6.52
18161;BMP280;9205;52.032;4.314;2023-02-28T11:46:39;103183.28;;;6.53
18161;BMP280;9205;52.032;4.314;2023-02-28T11:49:27;103188.63;;;6.62
18161;BMP280;9205;52.032;4.314;2023-02-28T11:52:02;103186.72;;;6.55
18161;BMP280;9205;52.032;4.314;2023-02-28T11:55:11;103177.50;;;6.84
18161;BMP280;9205;52.032;4.314;2023-02-28T11:58:13;103184.00;;;7.03
18161;BMP280;9205;52.032;4.314;2023-02-28T12:01:03;103183.31;;;7.09
18161;BMP280;9205;52.032;4.314;2023-02-28T12:03:45;103181.78;;;7.14
18161;BMP280;9205;52.032;4.314;2023-02-28T12:06:33;103173.88;;;7.03
18161;BMP280;9205;52.032;4.314;2023-02-28T12:09:20;103176.56;;;7.08
18161;BMP280;9205;52.032;4.314;2023-02-28T12:11:55;103180.66;;;7.04
18161;BMP280;9205;52.032;4.314;2023-02-28T12:14:57;103164.94;;;7.14
18161;BMP280;9205;52.032;4.314;2023-02-28T12:17:44;103164.41;;;7.24
18161;BMP280;9205;52.032;4.314;2023-02-28T12:20:32;103156.19;;;7.31
18161;BMP280;9205;52.032;4.314;2023-02-28T12:23:26;103152.56;;;7.23
18161;BMP280;9205;52.032;4.314;2023-02-28T12:26:09;103160.22;;;7.26
18161;BMP280;9205;52.032;4.314;2023-02-28T12:28:45;103157.78;;;7.29
18161;BMP280;9205;52.032;4.314;2023-02-28T12:31:20;103144.66;;;7.42
18161;BMP280;9205;52.032;4.314;2023-02-28T12:33:55;103136.59;;;7.55
18161;BMP280;9205;52.032;4.314;2023-02-28T12:36:28;103144.38;;;7.63
18161;BMP280;9205;52.032;4.314;2023-02-28T12:39:03;103135.16;;;7.65
18161;BMP280;9205;52.032;4.314;2023-02-28T12:41:44;103137.03;;;7.72
18161;BMP280;9205;52.032;4.314;2023-02-28T12:44:19;103134.34;;;7.66
18161;BMP280;9205;52.032;4.314;2023-02-28T12:46:59;103129.41;;;7.70
18161;BMP280;9205;52.032;4.314;2023-02-28T12:49:34;103135.53;;;7.78
18161;BMP280;9205;52.032;4.314;2023-02-28T12:52:06;103138.91;;;7.78
18161;BMP280;9205;52.032;4.314;2023-02-28T12:54:46;103133.19;;;7.85
18161;BMP280;9205;52.032;4.314;2023-02-28T12:57:26;103137.31;;;7.82
18161;BMP280;9205;52.032;4.314;2023-02-28T13:00:10;103138.13;;;7.81
18161;BMP280;9205;52.032;4.314;2023-02-28T13:03:04;103122.03;;;7.79
18161;BMP280;9205;52.032;4.314;2023-02-28T13:06:05;103119.72;;;7.88
18161;BMP280;9205;52.032;4.314;2023-02-28T13:09:05;103118.34;;;8.00
18161;BMP280;9205;52.032;4.314;2023-02-28T13:11:41;103118.91;;;7.89
18161;BMP280;9205;52.032;4.314;2023-02-28T13:14:26;103107.44;;;8.03
18161;BMP280;9205;52.032;4.314;2023-02-28T13:17:10;103108.75;;;8.21
18161;BMP280;9205;52.032;4.314;2023-02-28T13:19:44;103090.19;;;8.21
18161;BMP280;9205;52.032;4.314;2023-02-28T13:22:39;103085.97;;;8.21
18161;BMP280;9205;52.032;4.314;2023-02-28T13:25:54;103095.25;;;8.21
18161;BMP280;9205;52.032;4.314;2023-02-28T13:32:41;103080.34;;;8.33
18161;BMP280;9205;52.032;4.314;2023-02-28T13:36:08;103083.97;;;8.44
18161;BMP280;9205;52.032;4.314;2023-02-28T13:38:41;103074.78;;;8.49
18161;BMP280;9205;52.032;4.314;2023-02-28T13:41:46;103080.53;;;8.42
18161;BMP280;9205;52.032;4.314;2023-02-28T13:44:20;103072.25;;;8.49
18161;BMP280;9205;52.032;4.314;2023-02-28T13:47:28;103077.38;;;8.50
18161;BMP280;9205;52.032;4.314;2023-02-28T13:53:42;103062.09;;;8.47
18161;BMP280;9205;52.032;4.314;2023-02-28T13:56:42;103070.69;;;8.54
18161;BMP280;9205;52.032;4.314;2023-02-28T13:59:25;103068.97;;;8.53
18161;BMP280;9205;52.032;4.314;2023-02-28T14:05:05;103064.41;;;8.37
18161;BMP280;9205;52.032;4.314;2023-02-28T14:07:42;103064.41;;;8.37
18161;BMP280;9205;52.032;4.314;2023-02-28T14:10:27;103057.81;;;8.45
18161;BMP280;9205;52.032;4.314;2023-02-28T14:13:11;103061.03;;;8.38
18161;BMP280;9205;52.032;4.314;2023-02-28T14:15:56;103058.63;;;8.42
18161;BMP280;9205;52.032;4.314;2023-02-28T14:18:29;103059.72;;;8.55
18161;BMP280;9205;52.032;4.314;2023-02-28T14:21:09;103056.53;;;8.63
18161;BMP280;9205;52.032;4.314;2023-02-28T14:24:16;103069.19;;;8.61
18161;BMP280;9205;52.032;4.314;2023-02-28T14:27:14;103055.09;;;8.74
18161;BMP280;9205;52.032;4.314;2023-02-28T14:30:48;103046.47;;;8.67
18161;BMP280;9205;52.032;4.314;2023-02-28T14:33:33;103048.31;;;8.74
18161;BMP280;9205;52.032;4.314;2023-02-28T14:36:17;103059.28;;;8.73
18161;BMP280;9205;52.032;4.314;2023-02-28T14:38:51;103049.03;;;8.69
18161;BMP280;9205;52.032;4.314;2023-02-28T14:41:23;103043.31;;;8.77
18161;BMP280;9205;52.032;4.314;2023-02-28T14:43:56;103049.25;;;8.79
18161;BMP280;9205;52.032;4.314;2023-02-28T14:46:35;103044.13;;;8.76
18161;BMP280;9205;52.032;4.314;2023-02-28T14:49:05;103046.81;;;8.84
18161;BMP280;9205;52.032;4.314;2023-02-28T14:51:35;103045.88;;;8.79
18161;BMP280;9205;52.032;4.314;2023-02-28T14:54:05;103034.91;;;8.78
18161;BMP280;9205;52.032;4.314;2023-02-28T14:56:39;103036.84;;;8.91
18161;BMP280;9205;52.032;4.314;2023-02-28T14:59:26;103045.19;;;8.87
18161;BMP280;9205;52.032;4.314;2023-02-28T15:02:22;103038.56;;;8.92
18161;BMP280;9205;52.032;4.314;2023-02-28T15:04:55;103026.53;;;8.84
18161;BMP280;9205;52.032;4.314;2023-02-28T15:07:32;103039.34;;;8.90
18161;BMP280;9205;52.032;4.314;2023-02-28T15:10:16;103041.84;;;8.88
18161;BMP280;9205;52.032;4.314;2023-02-28T15:12:53;103036.38;;;8.69
18161;BMP280;9205;52.032;4.314;2023-02-28T15:15:25;103049.91;;;8.69
18161;BMP280;9205;52.032;4.314;2023-02-28T15:17:59;103038.09;;;8.70
18161;BMP280;9205;52.032;4.314;2023-02-28T15:20:32;103036.47;;;8.73
18161;BMP280;9205;52.032;4.314;2023-02-28T15:23:01;103029.59;;;8.68
18161;BMP280;9205;52.032;4.314;2023-02-28T15:25:29;103039.63;;;8.63
18161;BMP280;9205;52.032;4.314;2023-02-28T15:27:58;103037.16;;;8.65